Girolata — FPOD — position and weather

sailwx.info

Track history (hours):
 
Tides and Currents Weather Stations Pressure Air Temp Water Temp Dewpoint Dewpoint Depression Visibility Wind Speed Wind Dir Waves Ship Positions

Girolata

Last reported at 2018-Dec-12 12:04 UTC. Time now 2018-Dec-12 13:51 UTC.
Position N 43°19' E 005°22'.

Length 177 m; beam 27 m.

Type: Passenger vessel. MMSI: 226245000.

Date/timePositionNaut miles runAvg speedWind from/ knotsBaromVisibWave heightAir tempDewpointWater temp
2018-Dec-12 12:04N 43°19' E 005°22'0 0.0
2018-Dec-12 10:22N 43°19' E 005°22'0 0.0
2018-Dec-12 07:52N 43°19' E 005°22'0 0.0
2018-Dec-12 07:22N 43°19' E 005°22'0 0.0
2018-Dec-12 06:10N 43°19' E 005°22'0 0.0
2018-Dec-12 06:00N 43°19' E 005°22'1 1.3
2018-Dec-12 05:28N 43°18' E 005°22'510.2
2018-Dec-12 05:00N 43°14' E 005°18'16016.5
2018-Dec-11 19:19N 41°52' E 008°25'716.7
2018-Dec-11 18:54N 41°50' E 008°34'166 7.2
2018-Dec-10 19:40N 43°12' E 005°18'319.7
2018-Dec-10 19:30N 43°15' E 005°16'6 9.4
2018-Dec-10 18:52N 43°20' E 005°21'0 0.0
2018-Dec-10 11:54N 43°20' E 005°21'2 4.7
2018-Dec-10 11:30N 43°21' E 005°19'612.2
2018-Dec-10 11:01N 43°15' E 005°18'8017.0
2018-Dec-10 06:17N 42°51' E 007°03'413.4
2018-Dec-10 06:01N 42°50' E 007°08'611.6
2018-Dec-10 05:31N 42°48' E 007°15'612.1
2018-Dec-10 05:00N 42°43' E 007°20'1912.1
2018-Dec-10 03:28N 42°28' E 007°35'1212.1
2018-Dec-10 02:29N 42°22' E 007°49'30 1.4
2018-Dec-09 04:30N 41°56' E 008°10'14815.3
2018-Dec-08 18:51N 43°12' E 005°18'513.5
2018-Dec-08 18:30N 43°17' E 005°20'2 0.1
2018-Dec-08 07:33N 43°18' E 005°22'0 7.8
2018-Dec-08 07:30N 43°18' E 005°21'5 0.1
2018-Dec-06 18:54N 43°13' E 005°18'510.9
2018-Dec-06 18:25N 43°18' E 005°21'1 0.1
2018-Dec-06 07:37N 43°19' E 005°22'1 3.1
2018-Dec-06 07:19N 43°18' E 005°21'411.3
2018-Dec-06 07:00N 43°15' E 005°18'10020.0
2018-Dec-06 02:00N 42°22' E 007°14'2520.2
2018-Dec-06 00:45N 42°10' E 007°43'519.8
2018-Dec-06 00:30N 42°07' E 007°49'1020.1
2018-Dec-06 00:00N 42°02' E 008°01'1020.4
2018-Dec-05 23:30N 41°57' E 008°13'1120.7
2018-Dec-05 22:59N 41°52' E 008°25'14 2.6
2018-Dec-05 17:50N 41°52' E 008°43'619.5
2018-Dec-05 17:30N 41°46' E 008°39'915.4
2018-Dec-05 16:56N 41°41' E 008°47'1 0.2
2018-Dec-05 09:24N 41°41' E 008°49'718.8
2018-Dec-05 09:00N 41°42' E 008°39'815.4
2018-Dec-05 08:29N 41°50' E 008°42'6 1.9
2018-Dec-05 05:28N 41°56' E 008°45'3 5.9
2018-Dec-05 05:00N 41°53' E 008°44'817.0
2018-Dec-05 04:31N 41°49' E 008°34'917.9
2018-Dec-05 04:01N 41°53' E 008°23'918.4
2018-Dec-05 03:31N 41°58' E 008°12'918.1
2018-Dec-05 03:00N 42°02' E 008°01'1517.7
2018-Dec-05 02:10N 42°10' E 007°44'317.8
2018-Dec-05 01:59N 42°11' E 007°40'918.0
2018-Dec-05 01:30N 42°15' E 007°30'917.5
2018-Dec-05 01:01N 42°20' E 007°20'917.7
2018-Dec-05 00:31N 42°24' E 007°09'917.6
2018-Dec-05 00:00N 42°28' E 006°59'1917.7
2018-Dec-04 22:57N 42°37' E 006°36'6817.1
2018-Dec-04 19:01N 43°13' E 005°18'017.9
2018-Dec-04 18:59N 43°13' E 005°18'510.5
2018-Dec-04 18:30N 43°18' E 005°21'1 0.1
2018-Dec-04 07:34N 43°19' E 005°22'0 0.0
2018-Dec-04 06:40N 43°19' E 005°22'0 0.0
2018-Dec-04 06:06N 43°19' E 005°22'0 0.0
2018-Dec-04 05:59N 43°19' E 005°22'1 1.8
2018-Dec-04 05:28N 43°18' E 005°21'510.3
2018-Dec-04 05:00N 43°14' E 005°18'15116.3
2018-Dec-03 19:45N 41°57' E 008°15'616.6
2018-Dec-03 19:22N 41°54' E 008°22'53 2.9
2018-Dec-03 01:04N 42°19' E 007°20'216.3
2018-Dec-03 00:58N 42°20' E 007°18'10216.5
2018-Dec-02 18:47N 43°12' E 005°18'415.2
2018-Dec-02 18:30N 43°16' E 005°19'3 2.0
2018-Dec-02 16:51N 43°19' E 005°22'0 0.0
2018-Dec-02 16:21N 43°19' E 005°22'0 0.0
2018-Dec-02 13:24N 43°19' E 005°22'  
Track history (hours):
 
Tides and Currents Weather Stations Pressure Air Temp Water Temp Dewpoint Dewpoint Depression Visibility Wind Speed Wind Dir Waves Ship Positions

Girolata

Last reported at 2018-Dec-12 12:04 UTC. Time now 2018-Dec-12 13:51 UTC.
Position N 43°19' E 005°22'.

Length 177 m; beam 27 m.

Type: Passenger vessel. MMSI: 226245000.

Date/timePositionNaut miles runAvg speedWind from/ knotsBaromVisibWave heightAir tempDewpointWater temp
2018-Dec-12 12:04N 43°19' E 005°22'0 0.0
2018-Dec-12 10:22N 43°19' E 005°22'0 0.0
2018-Dec-12 07:52N 43°19' E 005°22'0 0.0
2018-Dec-12 07:22N 43°19' E 005°22'0 0.0
2018-Dec-12 06:10N 43°19' E 005°22'0 0.0
2018-Dec-12 06:00N 43°19' E 005°22'1 1.3
2018-Dec-12 05:28N 43°18' E 005°22'510.2
2018-Dec-12 05:00N 43°14' E 005°18'16016.5
2018-Dec-11 19:19N 41°52' E 008°25'716.7
2018-Dec-11 18:54N 41°50' E 008°34'166 7.2
2018-Dec-10 19:40N 43°12' E 005°18'319.7
2018-Dec-10 19:30N 43°15' E 005°16'6 9.4
2018-Dec-10 18:52N 43°20' E 005°21'0 0.0
2018-Dec-10 11:54N 43°20' E 005°21'2 4.7
2018-Dec-10 11:30N 43°21' E 005°19'612.2
2018-Dec-10 11:01N 43°15' E 005°18'8017.0
2018-Dec-10 06:17N 42°51' E 007°03'413.4
2018-Dec-10 06:01N 42°50' E 007°08'611.6
2018-Dec-10 05:31N 42°48' E 007°15'612.1
2018-Dec-10 05:00N 42°43' E 007°20'1912.1
2018-Dec-10 03:28N 42°28' E 007°35'1212.1
2018-Dec-10 02:29N 42°22' E 007°49'30 1.4
2018-Dec-09 04:30N 41°56' E 008°10'14815.3
2018-Dec-08 18:51N 43°12' E 005°18'513.5
2018-Dec-08 18:30N 43°17' E 005°20'2 0.1
2018-Dec-08 07:33N 43°18' E 005°22'0 7.8
2018-Dec-08 07:30N 43°18' E 005°21'5 0.1
2018-Dec-06 18:54N 43°13' E 005°18'510.9
2018-Dec-06 18:25N 43°18' E 005°21'1 0.1
2018-Dec-06 07:37N 43°19' E 005°22'1 3.1
2018-Dec-06 07:19N 43°18' E 005°21'411.3
2018-Dec-06 07:00N 43°15' E 005°18'10020.0
2018-Dec-06 02:00N 42°22' E 007°14'2520.2
2018-Dec-06 00:45N 42°10' E 007°43'519.8
2018-Dec-06 00:30N 42°07' E 007°49'1020.1
2018-Dec-06 00:00N 42°02' E 008°01'1020.4
2018-Dec-05 23:30N 41°57' E 008°13'1120.7
2018-Dec-05 22:59N 41°52' E 008°25'14 2.6
2018-Dec-05 17:50N 41°52' E 008°43'619.5
2018-Dec-05 17:30N 41°46' E 008°39'915.4
2018-Dec-05 16:56N 41°41' E 008°47'1 0.2
2018-Dec-05 09:24N 41°41' E 008°49'718.8
2018-Dec-05 09:00N 41°42' E 008°39'815.4
2018-Dec-05 08:29N 41°50' E 008°42'6 1.9
2018-Dec-05 05:28N 41°56' E 008°45'3 5.9
2018-Dec-05 05:00N 41°53' E 008°44'817.0
2018-Dec-05 04:31N 41°49' E 008°34'917.9
2018-Dec-05 04:01N 41°53' E 008°23'918.4
2018-Dec-05 03:31N 41°58' E 008°12'918.1
2018-Dec-05 03:00N 42°02' E 008°01'1517.7
2018-Dec-05 02:10N 42°10' E 007°44'317.8
2018-Dec-05 01:59N 42°11' E 007°40'918.0
2018-Dec-05 01:30N 42°15' E 007°30'917.5
2018-Dec-05 01:01N 42°20' E 007°20'917.7
2018-Dec-05 00:31N 42°24' E 007°09'917.6
2018-Dec-05 00:00N 42°28' E 006°59'1917.7
2018-Dec-04 22:57N 42°37' E 006°36'6817.1
2018-Dec-04 19:01N 43°13' E 005°18'017.9
2018-Dec-04 18:59N 43°13' E 005°18'510.5
2018-Dec-04 18:30N 43°18' E 005°21'1 0.1
2018-Dec-04 07:34N 43°19' E 005°22'0 0.0
2018-Dec-04 06:40N 43°19' E 005°22'0 0.0
2018-Dec-04 06:06N 43°19' E 005°22'0 0.0
2018-Dec-04 05:59N 43°19' E 005°22'1 1.8
2018-Dec-04 05:28N 43°18' E 005°21'510.3
2018-Dec-04 05:00N 43°14' E 005°18'15116.3
2018-Dec-03 19:45N 41°57' E 008°15'616.6
2018-Dec-03 19:22N 41°54' E 008°22'53 2.9
2018-Dec-03 01:04N 42°19' E 007°20'216.3
2018-Dec-03 00:58N 42°20' E 007°18'10216.5
2018-Dec-02 18:47N 43°12' E 005°18'415.2
2018-Dec-02 18:30N 43°16' E 005°19'3 2.0
2018-Dec-02 16:51N 43°19' E 005°22'0 0.0
2018-Dec-02 16:21N 43°19' E 005°22'0 0.0
2018-Dec-02 13:24N 43°19' E 005°22'  

Dump ship's entire track history